Fayette, Utah
Current Conditions -  °F | °C
As of 7:15 AM on Monday 20 Oct 2014 (Local Time) from KDTA Reporting Station
Clear Clear  
Wind Chill: 46°   Ceiling: Unl
Heat Index: 46°   Visibility: 10mi
Dew Point: 35°   Wind: 0mph
Humidity: 64%   Direction: NA
Pressure: 30.07"   Gusts: NA
Location:  39.23°N, 111.86°W
Report Text: KDTA 201315Z AUTO 00000KT 10SM CLR 08/02 A3007 RMK AO1 T00800015
Loading
Personal Weather Stations






























Interactive Weather Map
Tropical Storm Tracking
New forecast layout! Learn more

10-Day Weather Forecast

Advertisements
Track Severe Weather on mobile